Time;durP1;ratioP1;P1;durP2;ratioP2;P2;SDS_P1;SDS_P2;PMS_P1;PMS_P2;Temp;Humidity;BMP_temperature;BMP_pressure;BME280_temperature;BME280_humidity;BME280_pressure;Samples;Min_cycle;Max_cycle;Signal;HPM_P1;HPM_P2
2022/03/12 00:00:48;;;;;;;11.38;6.18;;;6.20;71.60;;;;;;5038063;28;20048;-72
2022/03/12 00:03:17;;;;;;;14.45;7.35;;;6.20;71.60;;;;;;5042257;28;20049;-72
2022/03/12 00:06:02;;;;;;;10.38;5.90;;;6.10;71.40;;;;;;5051752;28;20495;-72
2022/03/12 00:08:47;;;;;;;14.65;6.38;;;6.10;71.10;;;;;;5043055;28;20053;-72
2022/03/12 00:11:40;;;;;;;13.88;6.90;;;6.10;71.60;;;;;;5053913;28;20037;-72
2022/03/12 00:14:07;;;;;;;13.43;6.38;;;6.30;71.90;;;;;;5055599;28;20045;-71
2022/03/12 00:16:34;;;;;;;12.57;6.15;;;6.10;71.80;;;;;;5052075;28;20075;-72
2022/03/12 00:19:04;;;;;;;13.40;6.68;;;6.10;71.70;;;;;;5052425;28;20508;-72
2022/03/12 00:21:30;;;;;;;13.13;7.00;;;6.10;72.40;;;;;;5050322;28;20045;-72
2022/03/12 00:23:58;;;;;;;14.45;7.00;;;6.10;71.80;;;;;;5051697;28;20159;-72
2022/03/12 00:26:25;;;;;;;17.63;6.47;;;6.10;72.00;;;;;;5062672;28;20056;-72
2022/03/12 00:28:53;;;;;;;12.18;7.05;;;6.10;72.40;;;;;;5033359;28;20040;-72
2022/03/12 00:31:19;;;;;;;15.30;7.45;;;6.10;72.30;;;;;;5040203;28;20051;-72
2022/03/12 00:33:44;;;;;;;15.13;7.28;;;6.00;72.50;;;;;;5069898;28;20403;-72
2022/03/12 00:36:12;;;;;;;10.68;6.18;;;6.00;72.90;;;;;;5041901;28;20083;-72
2022/03/12 00:38:38;;;;;;;12.38;6.20;;;6.10;73.00;;;;;;5039897;28;20055;-72
2022/03/12 00:41:08;;;;;;;10.05;6.50;;;6.50;73.40;;;;;;5067950;28;20044;-72
2022/03/12 00:43:34;;;;;;;11.43;6.57;;;5.90;72.90;;;;;;5052319;28;20041;-72
2022/03/12 00:46:00;;;;;;;11.35;6.13;;;5.90;73.50;;;;;;5050829;28;20437;-71
2022/03/12 00:48:26;;;;;;;10.50;6.05;;;6.00;73.70;;;;;;5049026;28;20052;-71
2022/03/12 00:50:52;;;;;;;12.38;6.63;;;5.80;73.30;;;;;;5034771;28;20127;-71
2022/03/12 00:53:20;;;;;;;19.27;7.68;;;5.80;74.20;;;;;;5051232;28;20045;-71
2022/03/12 00:55:46;;;;;;;11.10;6.03;;;5.80;73.40;;;;;;5067495;28;20048;-72
2022/03/12 00:58:11;;;;;;;11.70;6.00;;;5.80;73.70;;;;;;5072778;28;21352;-72
2022/03/12 01:00:37;;;;;;;11.10;6.10;;;5.80;73.70;;;;;;5070252;28;20063;-71
2022/03/12 01:03:03;;;;;;;10.85;6.63;;;5.80;73.80;;;;;;5056692;28;20057;-72
2022/03/12 01:05:47;;;;;;;12.73;6.72;;;5.80;74.00;;;;;;5050920;28;20044;-72
2022/03/12 01:08:14;;;;;;;10.88;6.13;;;5.80;73.80;;;;;;5032869;28;20048;-72
2022/03/12 01:10:41;;;;;;;12.50;6.68;;;5.80;74.10;;;;;;5065708;28;20053;-71
2022/03/12 01:13:07;;;;;;;11.82;6.03;;;5.70;73.80;;;;;;5051009;28;20392;-71
2022/03/12 01:15:34;;;;;;;11.60;5.88;;;5.70;73.80;;;;;;5045639;28;20492;-72
2022/03/12 01:18:00;;;;;;;10.57;6.18;;;5.70;74.10;;;;;;5048563;28;20091;-71
2022/03/12 01:20:26;;;;;;;13.27;6.55;;;5.70;73.70;;;;;;5052960;28;20131;-70
2022/03/12 01:22:52;;;;;;;13.90;6.50;;;5.70;73.90;;;;;;5069361;28;20078;-71
2022/03/12 01:25:18;;;;;;;14.13;6.13;;;5.70;74.00;;;;;;5048425;28;20098;-70
2022/03/12 01:27:43;;;;;;;15.88;6.38;;;5.70;74.10;;;;;;5067956;28;20439;-71
2022/03/12 01:30:09;;;;;;;10.75;6.20;;;5.70;74.30;;;;;;5052856;28;20614;-71
2022/03/12 01:32:36;;;;;;;12.10;5.63;;;5.70;74.50;;;;;;5069805;28;20115;-70
2022/03/12 01:35:03;;;;;;;13.50;6.10;;;5.70;74.10;;;;;;5052450;28;20033;-71
2022/03/12 01:37:28;;;;;;;13.70;6.22;;;5.70;74.80;;;;;;5085612;28;20052;-70
2022/03/12 01:39:54;;;;;;;10.88;6.40;;;5.70;74.60;;;;;;5040321;28;20506;-70
2022/03/12 01:42:24;;;;;;;12.80;6.63;;;5.70;75.00;;;;;;5034010;28;20090;-71
2022/03/12 01:44:50;;;;;;;10.90;6.20;;;5.70;75.00;;;;;;5051402;28;20123;-70
2022/03/12 01:47:19;;;;;;;10.65;6.07;;;5.70;74.60;;;;;;5052299;28;20136;-71
2022/03/12 01:49:47;;;;;;;18.13;6.43;;;5.70;74.90;;;;;;5065237;28;20052;-71
2022/03/12 01:52:13;;;;;;;11.10;6.53;;;5.70;75.30;;;;;;5055569;28;20055;-71
2022/03/12 01:54:40;;;;;;;10.73;6.43;;;5.70;75.80;;;;;;5072237;28;20078;-70
2022/03/12 01:57:09;;;;;;;11.32;6.55;;;5.70;75.50;;;;;;5054710;28;20048;-70
2022/03/12 01:59:38;;;;;;;11.35;6.40;;;5.60;75.40;;;;;;5050005;28;20119;-70
2022/03/12 02:02:08;;;;;;;11.02;6.28;;;5.70;75.60;;;;;;5069843;28;20107;-70
2022/03/12 02:04:36;;;;;;;10.65;5.80;;;5.70;75.60;;;;;;5074488;28;20562;-71
2022/03/12 02:07:02;;;;;;;12.50;6.82;;;5.70;75.90;;;;;;5051646;28;20049;-71
2022/03/12 02:09:28;;;;;;;11.45;6.68;;;5.70;75.30;;;;;;5050882;28;20055;-71
2022/03/12 02:11:54;;;;;;;12.73;6.90;;;5.70;75.80;;;;;;5056591;28;20037;-71
2022/03/12 02:14:23;;;;;;;14.77;7.80;;;5.70;75.80;;;;;;5051874;28;20053;-71
2022/03/12 02:16:56;;;;;;;12.20;6.57;;;5.70;76.50;;;;;;5036149;28;20045;-70
2022/03/12 02:19:25;;;;;;;12.15;6.68;;;5.60;76.60;;;;;;5053898;28;20045;-71
2022/03/12 02:21:56;;;;;;;13.02;6.80;;;5.60;76.60;;;;;;5051569;28;20045;-71
2022/03/12 02:24:27;;;;;;;14.75;7.00;;;5.70;76.50;;;;;;5050786;28;20373;-71
2022/03/12 02:26:56;;;;;;;16.75;7.13;;;5.60;76.90;;;;;;5074449;28;20056;-70
2022/03/12 02:29:23;;;;;;;15.20;6.68;;;5.60;77.10;;;;;;5051335;28;20049;-70
2022/03/12 02:31:51;;;;;;;11.85;6.65;;;5.60;76.90;;;;;;5050055;28;20488;-71
2022/03/12 02:34:23;;;;;;;11.10;6.45;;;5.60;76.90;;;;;;5036129;28;20045;-71
2022/03/12 02:36:56;;;;;;;12.63;6.88;;;5.60;77.10;;;;;;5034772;28;20041;-71
2022/03/12 02:39:22;;;;;;;10.85;6.40;;;5.80;77.70;;;;;;5087009;28;20047;-70
2022/03/12 02:41:51;;;;;;;13.45;7.15;;;5.60;77.40;;;;;;5051096;28;20126;-71
2022/03/12 02:44:22;;;;;;;11.77;6.25;;;5.60;77.80;;;;;;5096348;28;20097;-71
2022/03/12 02:47:15;;;;;;;12.40;6.75;;;5.50;78.60;;;;;;5056235;28;20036;-70
2022/03/12 02:49:50;;;;;;;14.98;6.82;;;5.50;78.50;;;;;;5061311;28;20060;-70
2022/03/12 02:52:17;;;;;;;11.27;6.60;;;6.40;78.30;;;;;;5050526;28;20040;-71
2022/03/12 02:54:44;;;;;;;12.68;6.97;;;5.50;77.90;;;;;;5036008;28;20052;-70
2022/03/12 02:57:10;;;;;;;12.63;6.57;;;5.50;78.40;;;;;;5051664;28;20041;-70
2022/03/12 02:59:38;;;;;;;10.82;6.47;;;6.00;78.40;;;;;;5067746;28;20388;-71
2022/03/12 03:02:07;;;;;;;13.23;6.40;;;5.50;78.50;;;;;;5037629;28;20462;-70
2022/03/12 03:04:35;;;;;;;12.00;6.40;;;5.80;78.50;;;;;;5042015;28;20049;-70
2022/03/12 03:07:02;;;;;;;13.00;6.68;;;5.50;78.40;;;;;;5035941;28;20148;-71
2022/03/12 03:09:29;;;;;;;13.77;6.80;;;5.50;78.40;;;;;;5050993;28;20438;-71
2022/03/12 03:11:55;;;;;;;15.00;6.85;;;5.50;77.90;;;;;;5052862;28;20049;-70
2022/03/12 03:14:26;;;;;;;12.35;6.43;;;5.50;77.50;;;;;;5053122;28;20365;-70
2022/03/12 03:16:53;;;;;;;13.27;6.68;;;5.50;77.50;;;;;;5040553;28;20052;-70
2022/03/12 03:19:24;;;;;;;11.55;6.53;;;5.50;77.40;;;;;;5060752;28;20052;-71
2022/03/12 03:21:51;;;;;;;11.52;6.65;;;5.50;77.40;;;;;;5051017;28;20451;-71
2022/03/12 03:24:17;;;;;;;11.65;6.40;;;5.90;77.40;;;;;;5070098;28;20041;-70
2022/03/12 03:26:43;;;;;;;10.95;6.32;;;5.60;78.20;;;;;;5073244;28;20110;-70
2022/03/12 03:29:09;;;;;;;11.65;6.65;;;5.60;77.70;;;;;;5067980;28;20128;-70
2022/03/12 03:31:36;;;;;;;12.10;6.68;;;5.50;78.20;;;;;;5052769;28;20076;-71
2022/03/12 03:34:02;;;;;;;12.13;6.57;;;5.60;77.00;;;;;;5052875;28;20067;-71
2022/03/12 03:36:28;;;;;;;13.88;7.28;;;5.60;76.90;;;;;;5057200;28;20596;-71
2022/03/12 03:38:54;;;;;;;12.52;5.93;;;5.60;76.70;;;;;;5055554;28;20496;-70
2022/03/12 03:41:20;;;;;;;12.85;6.35;;;5.60;77.20;;;;;;5061483;28;20106;-70
2022/03/12 03:43:47;;;;;;;12.90;6.38;;;5.60;76.80;;;;;;5089030;28;20087;-71
2022/03/12 03:46:16;;;;;;;17.83;7.22;;;5.60;77.50;;;;;;5057723;28;20132;-71
2022/03/12 03:48:45;;;;;;;12.93;6.30;;;5.60;76.80;;;;;;5072595;28;20103;-71
2022/03/12 03:51:10;;;;;;;10.63;6.35;;;5.50;77.30;;;;;;5047751;28;20113;-70
2022/03/12 03:53:36;;;;;;;11.35;6.78;;;5.50;77.20;;;;;;5046783;28;20124;-70
2022/03/12 03:56:02;;;;;;;12.50;6.30;;;5.50;77.10;;;;;;5049774;28;20052;-70
2022/03/12 03:58:28;;;;;;;16.38;7.28;;;5.50;77.40;;;;;;5044441;28;20557;-70
2022/03/12 04:01:00;;;;;;;12.55;6.18;;;5.50;77.00;;;;;;5061959;28;20041;-70
2022/03/12 04:03:32;;;;;;;10.43;6.10;;;5.50;76.90;;;;;;5065718;28;20055;-70
2022/03/12 04:05:58;;;;;;;11.13;6.40;;;5.50;76.40;;;;;;5044554;28;20149;-71
2022/03/12 04:08:24;;;;;;;12.18;6.60;;;5.40;76.30;;;;;;5044748;28;20049;-70
2022/03/12 04:10:50;;;;;;;10.95;6.63;;;5.40;77.10;;;;;;5045618;28;20071;-70
2022/03/12 04:13:18;;;;;;;13.23;6.97;;;5.40;77.70;;;;;;5051221;28;20071;-70
2022/03/12 04:15:44;;;;;;;10.88;6.53;;;5.40;77.30;;;;;;5060942;28;20373;-70
2022/03/12 04:18:10;;;;;;;11.55;6.05;;;5.40;77.80;;;;;;5047493;28;20084;-70
2022/03/12 04:20:37;;;;;;;10.80;6.05;;;5.30;77.70;;;;;;5048282;28;20079;-70
2022/03/12 04:23:07;;;;;;;14.70;6.35;;;5.30;77.40;;;;;;5040928;28;20143;-70
2022/03/12 04:25:32;;;;;;;12.50;6.07;;;5.10;77.80;;;;;;5034139;28;20072;-70
2022/03/12 04:27:58;;;;;;;11.38;6.35;;;5.20;77.70;;;;;;5047454;28;20103;-70
2022/03/12 04:30:25;;;;;;;12.30;6.05;;;5.10;77.80;;;;;;5071705;28;20047;-71
2022/03/12 04:32:50;;;;;;;10.77;6.60;;;5.10;78.00;;;;;;5050102;28;20068;-70
2022/03/12 04:35:25;;;;;;;11.20;6.43;;;5.10;77.80;;;;;;5050441;28;20127;-71
2022/03/12 04:37:52;;;;;;;9.93;5.78;;;5.10;78.90;;;;;;5048302;28;20238;-70
2022/03/12 04:40:23;;;;;;;14.18;6.53;;;5.00;78.20;;;;;;5071465;28;20036;-71
2022/03/12 04:42:48;;;;;;;11.77;6.05;;;5.10;78.60;;;;;;5056462;28;20377;-71
2022/03/12 04:45:19;;;;;;;11.52;5.80;;;5.00;78.00;;;;;;5071478;28;20070;-71
2022/03/12 04:47:47;;;;;;;12.95;6.25;;;5.10;78.70;;;;;;5070791;28;20043;-71
2022/03/12 04:50:14;;;;;;;11.15;6.60;;;5.00;79.20;;;;;;5048261;28;20087;-71
2022/03/12 04:52:45;;;;;;;11.07;5.88;;;5.00;78.60;;;;;;5048524;28;20056;-70
2022/03/12 04:55:16;;;;;;;12.98;6.10;;;5.10;79.10;;;;;;5041254;28;20037;-71
2022/03/12 04:57:42;;;;;;;13.30;6.07;;;5.10;78.30;;;;;;5061147;28;20441;-70
2022/03/12 05:00:15;;;;;;;11.23;6.03;;;5.20;78.50;;;;;;5052016;28;20076;-70
2022/03/12 05:02:41;;;;;;;10.20;6.03;;;5.00;78.40;;;;;;5051652;28;20052;-70
2022/03/12 05:05:11;;;;;;;11.50;5.88;;;5.10;78.00;;;;;;5053801;28;20080;-71
2022/03/12 05:07:38;;;;;;;13.15;6.10;;;5.20;78.50;;;;;;5054164;28;20040;-70
2022/03/12 05:10:07;;;;;;;14.13;6.82;;;5.00;78.70;;;;;;5045695;28;20044;-71
2022/03/12 05:12:33;;;;;;;10.95;6.00;;;5.00;78.70;;;;;;5047994;28;20064;-70
2022/03/12 05:14:59;;;;;;;9.95;6.03;;;5.00;79.00;;;;;;5033340;28;20041;-70
2022/03/12 05:17:26;;;;;;;13.32;6.13;;;4.90;78.60;;;;;;5050734;28;20040;-70
2022/03/12 05:19:52;;;;;;;12.80;6.30;;;4.90;78.60;;;;;;5049053;28;20048;-70
2022/03/12 05:22:18;;;;;;;10.13;5.82;;;4.90;78.80;;;;;;5046314;28;20109;-70
2022/03/12 05:24:44;;;;;;;10.35;5.85;;;4.90;78.60;;;;;;5048578;28;20063;-70
2022/03/12 05:27:17;;;;;;;12.50;5.72;;;4.90;79.10;;;;;;5070341;28;20056;-70
2022/03/12 05:29:45;;;;;;;11.25;6.45;;;4.80;78.90;;;;;;5053441;28;20483;-70
2022/03/12 05:32:13;;;;;;;11.10;6.32;;;4.80;78.60;;;;;;5048418;28;20427;-70
2022/03/12 05:34:40;;;;;;;11.27;5.85;;;4.80;78.70;;;;;;5036474;28;20048;-70
2022/03/12 05:37:09;;;;;;;10.65;5.40;;;4.90;78.40;;;;;;5062357;28;20538;-70
2022/03/12 05:39:35;;;;;;;11.38;5.65;;;4.80;78.60;;;;;;5045592;28;20040;-70
2022/03/12 05:42:05;;;;;;;10.30;5.35;;;4.80;78.90;;;;;;5069133;28;20201;-70
2022/03/12 05:44:34;;;;;;;10.75;5.60;;;4.80;78.30;;;;;;5053300;28;20050;-70
2022/03/12 05:47:01;;;;;;;10.13;5.63;;;4.80;78.50;;;;;;5036225;28;20060;-70
2022/03/12 05:49:27;;;;;;;12.05;5.60;;;4.80;78.60;;;;;;5027363;28;20523;-71
2022/03/12 05:51:53;;;;;;;11.15;5.20;;;4.80;79.00;;;;;;5047380;28;20053;-70
2022/03/12 05:54:18;;;;;;;8.90;5.55;;;4.80;78.30;;;;;;5052268;28;20051;-71
2022/03/12 05:56:44;;;;;;;10.88;5.53;;;4.60;78.30;;;;;;5065591;28;20435;-70
2022/03/12 05:59:10;;;;;;;9.90;5.20;;;4.80;78.20;;;;;;5069437;28;20076;-71
2022/03/12 06:01:38;;;;;;;15.02;5.80;;;4.80;78.30;;;;;;5044151;28;20476;-70
2022/03/12 06:04:04;;;;;;;15.10;5.75;;;4.80;78.50;;;;;;5051363;28;20131;-70
2022/03/12 06:06:34;;;;;;;8.63;5.32;;;4.90;78.20;;;;;;5057607;28;20076;-70
2022/03/12 06:09:00;;;;;;;9.93;5.47;;;4.90;77.80;;;;;;5061278;28;20079;-70
2022/03/12 06:11:25;;;;;;;12.18;5.75;;;4.90;77.70;;;;;;5042756;28;20473;-70
2022/03/12 06:14:00;;;;;;;10.88;5.22;;;4.90;77.90;;;;;;5043886;28;20052;-72
2022/03/12 06:16:27;;;;;;;12.15;5.85;;;5.00;77.70;;;;;;5057599;28;20041;-70
2022/03/12 06:18:53;;;;;;;9.70;5.18;;;5.00;77.70;;;;;;5046086;28;20093;-70
2022/03/12 06:21:20;;;;;;;10.18;5.65;;;5.00;77.80;;;;;;5043913;28;20041;-70
2022/03/12 06:23:46;;;;;;;10.43;5.28;;;5.10;78.00;;;;;;5052624;28;20128;-71
2022/03/12 06:26:16;;;;;;;9.15;4.72;;;6.20;78.70;;;;;;5037708;28;20063;-71
2022/03/12 06:28:43;;;;;;;11.25;5.47;;;5.10;78.50;;;;;;5040183;28;20052;-71
2022/03/12 06:31:11;;;;;;;11.05;6.00;;;5.10;77.70;;;;;;5050296;28;20059;-71
2022/03/12 06:33:37;;;;;;;9.32;5.63;;;5.10;77.60;;;;;;5074223;28;20048;-70
2022/03/12 06:36:03;;;;;;;11.52;5.68;;;5.20;77.40;;;;;;5064860;28;20045;-70
2022/03/12 06:38:30;;;;;;;12.38;5.25;;;5.20;77.70;;;;;;5050776;28;20055;-70
2022/03/12 06:40:58;;;;;;;13.40;6.20;;;5.20;77.20;;;;;;5035563;28;20088;-70
2022/03/12 06:43:28;;;;;;;9.63;5.32;;;5.20;77.40;;;;;;5073644;28;20044;-71
2022/03/12 06:45:58;;;;;;;12.05;5.35;;;5.20;78.00;;;;;;5050079;28;20123;-70
2022/03/12 06:48:25;;;;;;;13.48;5.50;;;5.20;77.40;;;;;;5037302;28;20128;-70
2022/03/12 06:50:52;;;;;;;10.75;6.20;;;5.20;77.70;;;;;;5037930;28;20048;-70
2022/03/12 06:53:17;;;;;;;10.77;4.80;;;5.50;78.10;;;;;;5037533;28;20049;-71
2022/03/12 06:55:44;;;;;;;8.60;4.82;;;5.30;77.70;;;;;;5052590;28;20503;-71
2022/03/12 06:58:10;;;;;;;10.23;5.75;;;5.30;77.70;;;;;;5064243;28;20053;-70
2022/03/12 07:00:36;;;;;;;12.45;5.57;;;5.30;77.20;;;;;;5072299;28;20048;-74
2022/03/12 07:03:02;;;;;;;9.95;5.25;;;5.30;77.30;;;;;;5050215;28;20052;-72
2022/03/12 07:05:28;;;;;;;12.45;6.35;;;5.30;77.70;;;;;;5067423;28;20130;-72
2022/03/12 07:07:54;;;;;;;9.98;5.10;;;5.40;77.50;;;;;;5048755;28;20183;-72
2022/03/12 07:10:21;;;;;;;10.98;5.50;;;5.40;77.50;;;;;;5049070;28;20049;-72
2022/03/12 07:12:47;;;;;;;11.90;5.50;;;5.40;77.70;;;;;;5050379;28;20070;-73
2022/03/12 07:15:14;;;;;;;10.32;5.78;;;5.40;77.90;;;;;;5050982;28;20098;-73
2022/03/12 07:17:43;;;;;;;11.73;5.63;;;5.50;78.60;;;;;;5068113;28;20081;-73
2022/03/12 07:20:10;;;;;;;9.40;5.25;;;5.50;78.10;;;;;;5035803;28;20087;-72
2022/03/12 07:22:36;;;;;;;13.25;5.35;;;5.60;77.80;;;;;;5060804;28;20048;-72
2022/03/12 07:25:02;;;;;;;13.02;6.10;;;5.60;77.60;;;;;;5046629;28;20047;-72
2022/03/12 07:27:28;;;;;;;12.60;5.45;;;5.70;77.90;;;;;;5048992;28;20508;-72
2022/03/12 07:29:54;;;;;;;11.05;5.80;;;5.80;77.90;;;;;;5065686;28;20081;-73
2022/03/12 07:32:20;;;;;;;11.93;6.15;;;5.60;78.00;;;;;;5049991;28;20061;-72
2022/03/12 07:34:47;;;;;;;11.15;5.43;;;5.60;78.70;;;;;;5041161;28;20040;-73
2022/03/12 07:37:13;;;;;;;10.13;6.25;;;5.50;78.40;;;;;;5045133;28;20052;-73
2022/03/12 07:39:39;;;;;;;10.65;5.55;;;5.50;78.80;;;;;;5049221;28;20419;-72
2022/03/12 07:42:05;;;;;;;11.90;6.72;;;5.50;79.40;;;;;;5039574;28;20122;-72
2022/03/12 07:44:32;;;;;;;9.40;5.50;;;5.50;79.60;;;;;;5049302;28;20032;-72
2022/03/12 07:46:59;;;;;;;11.82;6.30;;;5.50;79.80;;;;;;5054033;28;20511;-72
2022/03/12 07:49:26;;;;;;;11.65;5.22;;;5.50;80.00;;;;;;5039516;28;20512;-73
2022/03/12 07:51:54;;;;;;;10.35;5.90;;;5.50;80.40;;;;;;5055408;28;20045;-73
2022/03/12 07:54:20;;;;;;;13.00;6.05;;;6.20;80.70;;;;;;5047360;28;20051;-73
2022/03/12 07:56:46;;;;;;;10.77;5.55;;;5.60;80.90;;;;;;5050364;28;20032;-72
2022/03/12 07:59:11;;;;;;;16.00;6.07;;;5.60;81.20;;;;;;5061592;28;20099;-73
2022/03/12 08:01:38;;;;;;;15.18;7.53;;;5.70;81.00;;;;;;5067390;28;20443;-73
2022/03/12 08:04:04;;;;;;;13.00;6.15;;;5.80;81.30;;;;;;5062897;28;20041;-72
2022/03/12 08:06:30;;;;;;;14.38;6.55;;;5.80;81.50;;;;;;5060679;28;20128;-73
2022/03/12 08:08:57;;;;;;;12.32;5.95;;;5.90;82.10;;;;;;5067199;28;20384;-72
2022/03/12 08:11:28;;;;;;;11.70;6.05;;;6.00;81.40;;;;;;5062218;28;20056;-73
2022/03/12 08:13:57;;;;;;;13.75;6.15;;;6.10;81.40;;;;;;5056050;28;20045;-72
2022/03/12 08:16:24;;;;;;;12.43;6.80;;;6.20;82.40;;;;;;5061740;28;20041;-72
2022/03/12 08:18:49;;;;;;;11.00;6.43;;;6.70;82.90;;;;;;5038507;28;20090;-73
2022/03/12 08:21:15;;;;;;;11.27;6.70;;;6.40;82.30;;;;;;5046625;28;20049;-73
2022/03/12 08:23:42;;;;;;;10.60;6.20;;;6.50;82.00;;;;;;5042260;28;20052;-73
2022/03/12 08:26:08;;;;;;;11.98;6.35;;;6.50;83.40;;;;;;5061613;28;20106;-72
2022/03/12 08:28:34;;;;;;;12.90;6.50;;;6.60;83.00;;;;;;5039032;28;20049;-73
2022/03/12 08:31:02;;;;;;;13.10;7.38;;;6.70;82.90;;;;;;5052037;28;20080;-73
2022/03/12 08:33:28;;;;;;;11.32;6.03;;;6.80;82.70;;;;;;5037221;28;20041;-73
2022/03/12 08:35:55;;;;;;;12.40;7.00;;;6.90;82.40;;;;;;5040658;28;20127;-74
2022/03/12 08:38:20;;;;;;;10.50;6.22;;;7.00;82.40;;;;;;5056567;28;20454;-74
2022/03/12 08:40:46;;;;;;;11.70;6.93;;;7.10;82.60;;;;;;5048471;28;20045;-74
2022/03/12 08:43:13;;;;;;;14.90;6.22;;;7.10;82.90;;;;;;5035272;28;20048;-74
2022/03/12 08:45:38;;;;;;;13.00;6.43;;;7.20;82.30;;;;;;5067594;28;20057;-74
2022/03/12 08:48:04;;;;;;;11.27;6.32;;;7.30;82.50;;;;;;5049419;28;20057;-74
2022/03/12 08:50:32;;;;;;;11.88;6.85;;;7.40;82.40;;;;;;5015515;28;20045;-74
2022/03/12 08:52:58;;;;;;;12.57;7.38;;;7.60;82.70;;;;;;5030926;28;20098;-84
2022/03/12 08:55:24;;;;;;;14.18;6.72;;;7.70;83.00;;;;;;5017744;28;20034;-75
2022/03/12 08:57:51;;;;;;;13.75;6.57;;;7.80;82.50;;;;;;5012272;28;20049;-73
2022/03/12 09:00:19;;;;;;;14.10;6.72;;;7.90;83.00;;;;;;5015820;28;20068;-77
2022/03/12 09:02:46;;;;;;;13.93;7.28;;;8.00;82.90;;;;;;5017032;28;20396;-77
2022/03/12 09:05:14;;;;;;;13.07;7.00;;;8.20;83.40;;;;;;5027190;28;20049;-75
2022/03/12 09:07:41;;;;;;;14.48;7.50;;;8.30;82.90;;;;;;5028376;28;20049;-75
2022/03/12 09:10:12;;;;;;;14.27;7.95;;;8.40;82.90;;;;;;5028623;28;20057;-75
2022/03/12 09:12:42;;;;;;;16.00;7.20;;;8.50;82.60;;;;;;5021590;28;20512;-75
2022/03/12 09:15:09;;;;;;;13.82;7.05;;;8.70;83.00;;;;;;5021838;28;20045;-75
2022/03/12 09:17:35;;;;;;;15.80;7.38;;;8.80;83.30;;;;;;5023652;28;20045;-75
2022/03/12 09:20:04;;;;;;;13.85;7.57;;;8.90;83.80;;;;;;5013159;28;20168;-75
2022/03/12 09:22:30;;;;;;;12.65;7.15;;;9.00;84.00;;;;;;5015276;28;20569;-75
2022/03/12 09:24:55;;;;;;;11.35;7.28;;;9.10;83.70;;;;;;5012458;28;20214;-75
2022/03/12 09:27:23;;;;;;;14.80;7.57;;;9.20;83.60;;;;;;5016771;28;20107;-74
2022/03/12 09:29:50;;;;;;;12.02;6.85;;;9.40;83.30;;;;;;5023316;28;20045;-74
2022/03/12 09:32:16;;;;;;;13.07;7.13;;;9.50;83.60;;;;;;5012155;28;20394;-74
2022/03/12 09:34:41;;;;;;;11.25;7.00;;;9.70;83.60;;;;;;5026794;28;20048;-75
2022/03/12 09:37:09;;;;;;;13.02;7.32;;;9.80;83.90;;;;;;5027459;28;20054;-75
2022/03/12 09:39:35;;;;;;;12.05;7.22;;;9.90;83.60;;;;;;5017379;28;20148;-77
2022/03/12 09:42:01;;;;;;;15.05;7.35;;;10.00;83.80;;;;;;5023332;28;20124;-76
2022/03/12 09:44:27;;;;;;;16.17;7.43;;;10.20;83.30;;;;;;5019633;28;20773;-76
2022/03/12 09:46:53;;;;;;;14.63;7.47;;;10.30;83.30;;;;;;5023536;28;20485;-78
2022/03/12 09:49:19;;;;;;;12.98;7.75;;;10.40;83.30;;;;;;5049152;28;20080;-77
2022/03/12 09:51:45;;;;;;;13.70;7.60;;;10.60;84.10;;;;;;5034550;28;20052;-76
2022/03/12 09:54:11;;;;;;;14.52;8.48;;;10.70;84.60;;;;;;5047642;28;20048;-79
2022/03/12 09:56:38;;;;;;;14.02;7.60;;;10.80;84.00;;;;;;5046075;28;20044;-76
2022/03/12 09:59:05;;;;;;;13.02;7.78;;;11.00;84.50;;;;;;5047246;28;20059;-76
2022/03/12 10:01:34;;;;;;;14.73;7.60;;;11.10;84.50;;;;;;5051993;28;20049;-77
2022/03/12 10:04:00;;;;;;;13.57;8.38;;;11.20;84.50;;;;;;5039676;28;20059;-77
2022/03/12 10:06:25;;;;;;;14.20;7.00;;;11.30;84.50;;;;;;5072124;28;20133;-76
2022/03/12 10:08:52;;;;;;;13.15;8.25;;;11.40;85.00;;;;;;5049398;28;20400;-80
2022/03/12 10:11:18;;;;;;;13.98;7.22;;;11.50;86.10;;;;;;5049201;28;20049;-81
2022/03/12 10:13:44;;;;;;;12.80;7.53;;;11.60;85.90;;;;;;5054327;28;20045;-77
2022/03/12 10:16:10;;;;;;;11.52;7.38;;;11.70;86.40;;;;;;5046056;28;20136;-77
2022/03/12 10:18:36;;;;;;;14.13;8.13;;;11.80;87.30;;;;;;5051810;28;20140;-76
2022/03/12 10:21:02;;;;;;;13.52;7.72;;;11.80;87.80;;;;;;5062507;28;20094;-77
2022/03/12 10:23:28;;;;;;;15.38;7.95;;;11.90;88.00;;;;;;5055631;28;20045;-77
2022/03/12 10:25:53;;;;;;;16.45;9.20;;;12.00;88.60;;;;;;5055115;28;20052;-76
2022/03/12 10:28:19;;;;;;;14.52;8.20;;;12.00;89.20;;;;;;5038216;28;20411;-80
2022/03/12 10:30:45;;;;;;;11.75;7.53;;;12.10;89.30;;;;;;5052317;28;20128;-80
2022/03/12 10:33:21;;;;;;;18.48;7.90;;;12.20;89.30;;;;;;5071361;28;20140;-80
2022/03/12 10:35:47;;;;;;;22.52;8.27;;;12.20;90.20;;;;;;5049706;28;20045;-79
2022/03/12 10:38:14;;;;;;;15.27;7.55;;;12.20;90.40;;;;;;5045814;28;20509;-80
2022/03/12 10:40:40;;;;;;;15.25;8.25;;;12.20;90.90;;;;;;5051537;28;20040;-75
2022/03/12 10:43:13;;;;;;;18.75;7.82;;;12.30;91.30;;;;;;5045275;28;20049;-75
2022/03/12 10:45:43;;;;;;;14.40;8.23;;;12.40;91.70;;;;;;5055584;28;20070;-75
2022/03/12 10:48:09;;;;;;;11.13;7.47;;;12.40;92.00;;;;;;5072662;28;20136;-75
2022/03/12 10:50:43;;;;;;;15.63;8.30;;;12.50;92.10;;;;;;5047258;28;20044;-80
2022/03/12 10:53:09;;;;;;;11.73;7.95;;;12.70;92.20;;;;;;5047312;28;20040;-79
2022/03/12 10:55:39;;;;;;;17.73;8.07;;;12.60;92.60;;;;;;5055190;28;20099;-79
2022/03/12 10:58:12;;;;;;;13.77;8.88;;;12.70;92.50;;;;;;5038270;28;20033;-78
2022/03/12 11:00:41;;;;;;;13.45;8.43;;;12.80;92.30;;;;;;5062340;28;20052;-75
2022/03/12 11:03:13;;;;;;;13.93;8.15;;;12.90;92.50;;;;;;5053319;28;20044;-75
2022/03/12 11:05:42;;;;;;;14.68;8.15;;;13.00;92.50;;;;;;5045552;28;20124;-79
2022/03/12 11:08:20;;;;;;;12.38;8.25;;;13.00;92.50;;;;;;5044794;28;20160;-82
2022/03/12 11:10:50;;;;;;;13.02;8.52;;;13.10;92.60;;;;;;5051253;28;20056;-82
2022/03/12 11:13:25;;;;;;;13.23;7.75;;;13.20;92.60;;;;;;5056030;28;20075;-82
2022/03/12 11:16:05;;;;;;;12.90;8.60;;;13.30;92.20;;;;;;5066636;28;20127;-83
2022/03/12 11:18:32;;;;;;;15.73;8.32;;;13.30;92.10;;;;;;5073309;28;20221;-83
2022/03/12 11:21:00;;;;;;;13.85;8.95;;;13.30;92.10;;;;;;5056377;28;20044;-84
2022/03/12 11:23:29;;;;;;;15.43;8.48;;;13.30;92.30;;;;;;5052853;28;20052;-81
2022/03/12 11:25:58;;;;;;;13.40;8.75;;;13.40;92.80;;;;;;5042930;28;20045;-82
2022/03/12 11:28:25;;;;;;;14.38;8.77;;;13.40;92.40;;;;;;5058143;28;20078;-83
2022/03/12 11:30:51;;;;;;;14.32;8.55;;;13.50;92.80;;;;;;5047817;28;20044;-79
2022/03/12 11:33:20;;;;;;;13.95;8.32;;;13.60;92.40;;;;;;5072666;28;20443;-79
2022/03/12 11:35:46;;;;;;;12.98;8.02;;;13.70;92.30;;;;;;5073977;28;20126;-79
2022/03/12 11:38:22;;;;;;;11.48;7.97;;;13.70;92.40;;;;;;5048734;28;20036;-79
2022/03/12 11:40:49;;;;;;;14.57;7.60;;;13.70;92.50;;;;;;5046870;28;20062;-77
2022/03/12 11:43:21;;;;;;;14.63;8.82;;;13.70;92.60;;;;;;5078292;28;20036;-78
2022/03/12 11:45:48;;;;;;;12.65;8.65;;;13.80;92.80;;;;;;5066381;28;20061;-77
2022/03/12 11:48:14;;;;;;;12.45;8.23;;;13.90;92.80;;;;;;5072677;28;20112;-77
2022/03/12 11:50:40;;;;;;;12.82;8.35;;;14.00;93.20;;;;;;5067718;28;20075;-78
2022/03/12 11:53:06;;;;;;;12.93;8.02;;;14.00;93.00;;;;;;5053533;28;20399;-78
2022/03/12 11:55:34;;;;;;;13.85;8.20;;;14.00;93.00;;;;;;5073301;28;20051;-77
2022/03/12 11:57:59;;;;;;;14.20;8.70;;;13.90;93.00;;;;;;5061245;28;20123;-77
2022/03/12 12:00:29;;;;;;;11.75;8.13;;;13.90;93.40;;;;;;5055230;28;20132;-78
2022/03/12 12:02:55;;;;;;;13.23;7.63;;;13.90;93.50;;;;;;5055348;28;20041;-78
2022/03/12 12:05:23;;;;;;;15.07;7.47;;;13.90;93.70;;;;;;5053486;28;20048;-78
2022/03/12 12:07:51;;;;;;;13.52;7.90;;;13.90;93.80;;;;;;5061060;28;20478;-78
2022/03/12 12:10:18;;;;;;;11.75;7.63;;;14.00;94.00;;;;;;5055113;28;20045;-81
2022/03/12 12:12:47;;;;;;;12.15;7.47;;;14.10;93.90;;;;;;5042332;28;20497;-81
2022/03/12 12:15:26;;;;;;;12.13;7.25;;;14.20;94.00;;;;;;5070726;28;20047;-80
2022/03/12 12:17:53;;;;;;;12.75;7.25;;;14.30;93.90;;;;;;5071812;28;20047;-80
2022/03/12 12:20:21;;;;;;;13.55;8.43;;;14.40;94.00;;;;;;5045271;28;20053;-80
2022/03/12 12:22:48;;;;;;;14.52;7.60;;;14.50;93.70;;;;;;5047153;28;20455;-80
2022/03/12 12:25:16;;;;;;;11.13;6.85;;;14.60;93.70;;;;;;5053661;28;20045;-80
2022/03/12 12:27:47;;;;;;;12.57;7.10;;;14.60;93.50;;;;;;5053212;28;20487;-80
2022/03/12 12:30:16;;;;;;;10.13;6.93;;;14.70;93.60;;;;;;5066208;28;20102;-81
2022/03/12 12:32:49;;;;;;;12.18;7.03;;;14.80;93.50;;;;;;5049030;28;20396;-81
2022/03/12 12:35:17;;;;;;;13.80;7.60;;;14.80;93.50;;;;;;5043906;28;20072;-80
2022/03/12 12:37:54;;;;;;;12.07;7.35;;;14.80;93.40;;;;;;5045905;28;20049;-79
2022/03/12 12:40:22;;;;;;;11.93;7.32;;;14.80;93.50;;;;;;5039289;28;20644;-78
2022/03/12 12:42:49;;;;;;;12.25;7.00;;;14.70;93.50;;;;;;5033056;28;20044;-80
2022/03/12 12:45:18;;;;;;;10.20;6.85;;;14.70;93.80;;;;;;5049540;28;20480;-75
2022/03/12 12:47:44;;;;;;;11.95;6.78;;;14.80;93.80;;;;;;5070747;28;20052;-78